Time;durP1;ratioP1;P1;durP2;ratioP2;P2;SDS_P1;SDS_P2;PMS_P1;PMS_P2;Temp;Humidity;BMP_temperature;BMP_pressure;BME280_temperature;BME280_humidity;BME280_pressure;Samples;Min_cycle;Max_cycle;Signal;HPM_P1;HPM_P2
2022/08/07 00:01:04;;;;;;;5.72;3.08;;;;;;;;;;5007074;28;20045;-73
2022/08/07 00:03:30;;;;;;;4.93;3.40;;;;;;;;;;5014068;28;20034;-73
2022/08/07 00:05:56;;;;;;;4.78;3.50;;;;;;;;;;5000910;28;20112;-73
2022/08/07 00:08:22;;;;;;;5.07;3.45;;;;;;;;;;5000150;28;20109;-73
2022/08/07 00:10:51;;;;;;;5.68;3.75;;;;;;;;;;5010712;28;20112;-73
2022/08/07 00:13:19;;;;;;;4.80;2.97;;;13.90;99.90;;;;;;5001964;28;20038;-73
2022/08/07 00:15:45;;;;;;;6.95;3.97;;;;;;;;;;5000775;28;20105;-74
2022/08/07 00:18:12;;;;;;;3.67;3.20;;;;;;;;;;4999457;28;20027;-71
2022/08/07 00:20:38;;;;;;;4.95;3.67;;;;;;;;;;4999359;28;20029;-72
2022/08/07 00:23:07;;;;;;;4.03;3.63;;;;;;;;;;5004186;28;20050;-72
2022/08/07 00:25:34;;;;;;;7.30;3.83;;;;;;;;;;5004375;28;20029;-72
2022/08/07 00:28:00;;;;;;;5.95;4.10;;;;;;;;;;5011290;28;20033;-73
2022/08/07 00:30:26;;;;;;;5.18;3.78;;;;;;;;;;4990240;28;20050;-73
2022/08/07 00:32:52;;;;;;;5.20;3.88;;;;;;;;;;5012325;28;20464;-73
2022/08/07 00:35:19;;;;;;;8.20;3.83;;;;;;;;;;5003770;28;20033;-73
2022/08/07 00:37:45;;;;;;;4.80;3.40;;;;;;;;;;4992165;28;20038;-74
2022/08/07 00:40:11;;;;;;;4.32;3.13;;;;;;;;;;5005986;28;20022;-73
2022/08/07 00:42:38;;;;;;;3.95;3.55;;;;;;;;;;5005565;28;20040;-73
2022/08/07 00:45:05;;;;;;;4.50;3.30;;;;;;;;;;5005453;28;20084;-73
2022/08/07 00:47:31;;;;;;;5.63;3.83;;;;;;;;;;5003460;28;20025;-73
2022/08/07 00:49:57;;;;;;;4.63;3.45;;;;;;;;;;4992110;28;20237;-73
2022/08/07 00:52:23;;;;;;;4.68;3.63;;;;;;;;;;4988308;28;20121;-73
2022/08/07 00:54:49;;;;;;;5.32;3.90;;;;;;;;;;5005594;28;20427;-73
2022/08/07 00:57:16;;;;;;;5.65;3.65;;;;;;;;;;4972223;28;20188;-72
2022/08/07 00:59:42;;;;;;;4.38;3.67;;;;;;;;;;5005485;28;20042;-73
2022/08/07 01:02:09;;;;;;;5.07;3.95;;;;;;;;;;5007441;28;20122;-73
2022/08/07 01:04:36;;;;;;;4.43;3.67;;;;;;;;;;5008458;28;20025;-73
2022/08/07 01:07:03;;;;;;;5.43;3.88;;;;;;;;;;5009083;28;20478;-73
2022/08/07 01:09:29;;;;;;;4.97;3.80;;;;;;;;;;5011441;28;20045;-72
2022/08/07 01:11:55;;;;;;;5.88;3.65;;;;;;;;;;5007632;28;20037;-73
2022/08/07 01:14:22;;;;;;;5.70;4.28;;;;;;;;;;4973883;28;20031;-74
2022/08/07 01:16:49;;;;;;;5.28;3.55;;;;;;;;;;4986840;28;20054;-74
2022/08/07 01:19:15;;;;;;;5.45;3.80;;;;;;;;;;5006873;28;20032;-73
2022/08/07 01:21:42;;;;;;;5.60;4.10;;;;;;;;;;5009002;28;20060;-73
2022/08/07 01:24:08;;;;;;;5.57;3.88;;;;;;;;;;5012455;28;20710;-73
2022/08/07 01:26:36;;;;;;;10.13;3.78;;;;;;;;;;4998365;28;20373;-74
2022/08/07 01:29:02;;;;;;;4.38;3.80;;;;;;;;;;5000763;28;20371;-73
2022/08/07 01:31:30;;;;;;;5.57;4.30;;;;;;;;;;4974991;28;20048;-74
2022/08/07 01:33:57;;;;;;;6.93;3.42;;;;;;;;;;5010928;28;20022;-74
2022/08/07 01:36:25;;;;;;;3.70;3.35;;;;;;;;;;5001764;28;20029;-74
2022/08/07 01:38:51;;;;;;;4.38;3.65;;;;;;;;;;5005201;28;20117;-73
2022/08/07 01:41:21;;;;;;;4.93;3.72;;;;;;;;;;5011014;28;20034;-73
2022/08/07 01:43:48;;;;;;;7.38;4.05;;;;;;;;;;5007558;28;20041;-73
2022/08/07 01:46:15;;;;;;;9.18;4.22;;;;;;;;;;5001237;28;20488;-73
2022/08/07 01:48:41;;;;;;;4.57;3.53;;;;;;;;;;4979327;28;20109;-73
2022/08/07 01:51:20;;;;;;;5.22;3.50;;;;;;;;;;5003861;28;20493;-73
2022/08/07 01:53:47;;;;;;;6.85;4.03;;;;;;;;;;5008977;28;20038;-73
2022/08/07 01:56:22;;;;;;;6.85;3.55;;;;;;;;;;5011614;28;20071;-73
2022/08/07 01:58:59;;;;;;;4.70;3.22;;;;;;;;;;4994106;28;20029;-73
2022/08/07 02:01:26;;;;;;;4.45;3.45;;;;;;;;;;4989783;28;20114;-73
2022/08/07 02:03:59;;;;;;;5.28;3.80;;;;;;;;;;4991884;28;20159;-73
2022/08/07 02:06:26;;;;;;;4.93;3.75;;;;;;;;;;5011511;28;20370;-73
2022/08/07 02:08:53;;;;;;;4.25;3.50;;;;;;;;;;4998088;28;20065;-73
2022/08/07 02:11:19;;;;;;;6.15;3.95;;;;;;;;;;5006812;28;20525;-73
2022/08/07 02:13:46;;;;;;;6.28;3.42;;;;;;;;;;4999884;28;20030;-74
2022/08/07 02:16:14;;;;;;;4.35;3.42;;;;;;;;;;5011191;28;20385;-73
2022/08/07 02:18:41;;;;;;;5.05;3.90;;;;;;;;;;5001254;28;20034;-73
2022/08/07 02:21:08;;;;;;;5.45;3.90;;;;;;;;;;5010770;28;20041;-73
2022/08/07 02:23:36;;;;;;;5.35;3.60;;;;;;;;;;5003093;28;20133;-73
2022/08/07 02:26:04;;;;;;;5.57;4.45;;;;;;;;;;5009881;28;20042;-73
2022/08/07 02:28:30;;;;;;;5.63;3.72;;;;;;;;;;4988730;28;20038;-73
2022/08/07 02:30:57;;;;;;;5.30;3.88;;;;;;;;;;4993538;28;20148;-73
2022/08/07 02:33:26;;;;;;;7.10;4.45;;;12.40;99.90;;;;;;5007496;28;20145;-73
2022/08/07 02:35:53;;;;;;;5.22;4.45;;;;;;;;;;4997515;28;20046;-73
2022/08/07 02:38:20;;;;;;;7.78;4.47;;;;;;;;;;5004336;28;20036;-73
2022/08/07 02:40:47;;;;;;;5.43;3.67;;;;;;;;;;5008867;28;20054;-74
2022/08/07 02:43:14;;;;;;;4.50;3.47;;;;;;;;;;5004946;28;20997;-73
2022/08/07 02:45:41;;;;;;;4.80;3.95;;;;;;;;;;4993354;28;20033;-73
2022/08/07 02:48:08;;;;;;;4.70;3.20;;;;;;;;;;5005788;28;20057;-73
2022/08/07 02:50:37;;;;;;;5.03;4.03;;;;;;;;;;4986777;28;20049;-73
2022/08/07 02:53:06;;;;;;;5.68;3.85;;;;;;;;;;5007607;28;20101;-73
2022/08/07 02:55:34;;;;;;;5.60;4.03;;;;;;;;;;5000429;28;20034;-72
2022/08/07 02:58:04;;;;;;;8.20;4.05;;;;;;;;;;5006990;28;20034;-73
2022/08/07 03:00:32;;;;;;;5.75;4.22;;;;;;;;;;5003107;28;20046;-73
2022/08/07 03:02:58;;;;;;;4.10;3.70;;;;;;;;;;5009607;28;20041;-73
2022/08/07 03:05:24;;;;;;;4.10;3.35;;;;;;;;;;5005591;28;20033;-73
2022/08/07 03:07:51;;;;;;;4.30;3.45;;;;;;;;;;5010639;28;20489;-73
2022/08/07 03:10:17;;;;;;;4.55;4.00;;;;;;;;;;4997045;28;20030;-73
2022/08/07 03:12:45;;;;;;;6.68;4.20;;;;;;;;;;5000894;28;20536;-72
2022/08/07 03:15:11;;;;;;;5.38;4.15;;;;;;;;;;4986787;28;20030;-73
2022/08/07 03:17:38;;;;;;;4.18;3.78;;;;;;;;;;5025343;28;20079;-73
2022/08/07 03:20:05;;;;;;;5.13;4.50;;;;;;;;;;5005758;28;20038;-73
2022/08/07 03:22:32;;;;;;;6.47;4.63;;;;;;;;;;5007253;28;21764;-72
2022/08/07 03:24:58;;;;;;;6.72;4.43;;;;;;;;;;5007691;28;20109;-72
2022/08/07 03:27:25;;;;;;;5.72;4.22;;;;;;;;;;4995887;28;20045;-74
2022/08/07 03:29:51;;;;;;;5.35;3.97;;;;;;;;;;5000459;28;20034;-75
2022/08/07 03:32:36;;;;;;;6.43;3.80;;;;;;;;;;5008433;28;20478;-74
2022/08/07 03:35:03;;;;;;;9.20;3.90;;;;;;;;;;5011947;28;20491;-74
2022/08/07 03:37:30;;;;;;;5.60;3.75;;;;;;;;;;4999375;28;20034;-74
2022/08/07 03:39:57;;;;;;;5.45;4.25;;;;;;;;;;5002363;28;20034;-74
2022/08/07 03:42:23;;;;;;;6.03;3.60;;;;;;;;;;4999757;28;20044;-73
2022/08/07 03:44:49;;;;;;;3.95;3.60;;;;;;;;;;4995705;28;20378;-74
2022/08/07 03:47:16;;;;;;;4.43;4.00;;;;;;;;;;4985358;28;20378;-74
2022/08/07 03:49:45;;;;;;;4.68;4.03;;;;;;;;;;5011857;28;20040;-73
2022/08/07 03:52:11;;;;;;;6.72;4.18;;;;;;;;;;5007451;28;20054;-74
2022/08/07 03:54:38;;;;;;;4.65;3.92;;;;;;;;;;5010381;28;20049;-74
2022/08/07 03:57:05;;;;;;;4.90;4.00;;;;;;;;;;5000127;28;20034;-73
2022/08/07 03:59:31;;;;;;;6.50;4.13;;;;;;;;;;5011521;28;20034;-74
2022/08/07 04:01:57;;;;;;;10.35;4.60;;;;;;;;;;4986856;28;20038;-74
2022/08/07 04:04:23;;;;;;;6.50;4.28;;;;;;;;;;5010790;28;20030;-74
2022/08/07 04:06:50;;;;;;;5.43;4.57;;;;;;;;;;5000187;28;20109;-74
2022/08/07 04:09:18;;;;;;;5.68;4.22;;;;;;;;;;5007247;28;20447;-74
2022/08/07 04:11:44;;;;;;;6.40;4.70;;;;;;;;;;4994028;28;20474;-74
2022/08/07 04:14:10;;;;;;;7.32;4.90;;;;;;;;;;5009954;28;20030;-74
2022/08/07 04:16:37;;;;;;;8.65;4.85;;;;;;;;;;5011593;28;20030;-72
2022/08/07 04:19:06;;;;;;;7.60;4.82;;;;;;;;;;5013064;28;20066;-74
2022/08/07 04:21:32;;;;;;;5.10;4.55;;;;;;;;;;5010105;28;20045;-74
2022/08/07 04:23:59;;;;;;;5.38;4.18;;;;;;;;;;5005629;28;20072;-74
2022/08/07 04:26:25;;;;;;;5.75;4.55;;;;;;;;;;5011220;28;20030;-73
2022/08/07 04:28:51;;;;;;;7.03;4.47;;;;;;;;;;5013163;28;20084;-73
2022/08/07 04:31:18;;;;;;;6.38;5.43;;;;;;;;;;5008937;28;20478;-73
2022/08/07 04:33:46;;;;;;;4.85;4.07;;;;;;;;;;4994218;28;20113;-73
2022/08/07 04:36:13;;;;;;;6.45;4.60;;;;;;;;;;4990792;28;20061;-73
2022/08/07 04:38:39;;;;;;;9.75;4.72;;;;;;;;;;5008117;28;20473;-73
2022/08/07 04:41:07;;;;;;;5.32;4.45;;;;;;;;;;5004744;28;20047;-74
2022/08/07 04:43:37;;;;;;;8.60;5.32;;;;;;;;;;4990626;28;20336;-73
2022/08/07 04:46:12;;;;;;;4.75;3.72;;;;;;;;;;4998867;28;20025;-74
2022/08/07 04:48:41;;;;;;;7.00;4.57;;;;;;;;;;5009156;28;20080;-74
2022/08/07 04:51:19;;;;;;;5.32;4.40;;;;;;;;;;5008148;28;20034;-73
2022/08/07 04:53:54;;;;;;;4.95;4.43;;;;;;;;;;4999762;28;20140;-77
2022/08/07 04:56:26;;;;;;;7.00;5.15;;;;;;;;;;4991519;28;20379;-74
2022/08/07 04:59:13;;;;;;;7.28;3.97;;;;;;;;;;4987732;28;20038;-74
2022/08/07 05:01:46;;;;;;;7.25;4.78;;;;;;;;;;5005729;28;20034;-74
2022/08/07 05:04:19;;;;;;;8.60;5.22;;;;;;;;;;5013054;28;20541;-73
2022/08/07 05:06:48;;;;;;;5.65;4.18;;;;;;;;;;4996140;28;20054;-73
2022/08/07 05:09:19;;;;;;;7.68;4.30;;;;;;;;;;5010940;28;20418;-72
2022/08/07 05:11:48;;;;;;;7.32;4.50;;;;;;;;;;4997206;28;20463;-73
2022/08/07 05:14:18;;;;;;;4.70;3.53;;;;;;;;;;5010975;28;20107;-72
2022/08/07 05:16:47;;;;;;;5.80;4.18;;;;;;;;;;5003438;28;20027;-72
2022/08/07 05:19:16;;;;;;;5.00;3.90;;;;;;;;;;5008649;28;20037;-73
2022/08/07 05:21:44;;;;;;;5.85;4.18;;;;;;;;;;5000794;28;20041;-73
2022/08/07 05:24:11;;;;;;;4.78;3.78;;;;;;;;;;5009094;28;20052;-74
2022/08/07 05:26:38;;;;;;;4.55;3.88;;;;;;;;;;5008384;28;20550;-73
2022/08/07 05:29:06;;;;;;;5.22;3.95;;;;;;;;;;5007589;28;20034;-73
2022/08/07 05:31:33;;;;;;;4.55;3.83;;;;;;;;;;5010521;28;20537;-73
2022/08/07 05:34:00;;;;;;;4.18;3.78;;;;;;;;;;5003986;28;20123;-73
2022/08/07 05:36:27;;;;;;;5.63;3.85;;;;;;;;;;5008514;28;20041;-72
2022/08/07 05:38:54;;;;;;;8.27;4.10;;;;;;;;;;4996228;28;20040;-72
2022/08/07 05:41:21;;;;;;;5.57;4.07;;;;;;;;;;5008868;28;20034;-73
2022/08/07 05:43:48;;;;;;;6.00;3.72;;;;;;;;;;5004018;28;20120;-73
2022/08/07 05:46:16;;;;;;;4.85;4.18;;;;;;;;;;5010984;28;20033;-74
2022/08/07 05:48:43;;;;;;;6.65;4.18;;;;;;;;;;5007671;28;20061;-73
2022/08/07 05:51:09;;;;;;;5.85;4.53;;;;;;;;;;5001761;28;20098;-74
2022/08/07 05:53:35;;;;;;;5.97;4.60;;;;;;;;;;5003290;28;20034;-74
2022/08/07 05:56:04;;;;;;;7.28;4.90;;;;;;;;;;5006221;28;20095;-75
2022/08/07 05:58:30;;;;;;;5.97;4.72;;;;;;;;;;5004005;28;20025;-74
2022/08/07 06:00:58;;;;;;;5.93;4.00;;;;;;;;;;5009913;28;20390;-74
2022/08/07 06:03:25;;;;;;;7.10;4.45;;;;;;;;;;4983783;28;20030;-75
2022/08/07 06:05:52;;;;;;;5.75;4.25;;;;;;;;;;5008306;28;20028;-75
2022/08/07 06:08:18;;;;;;;8.00;4.82;;;;;;;;;;4990780;28;20089;-74
2022/08/07 06:10:45;;;;;;;6.53;5.05;;;;;;;;;;5010297;28;20069;-75
2022/08/07 06:13:11;;;;;;;7.32;4.63;;;;;;;;;;4999513;28;20026;-74
2022/08/07 06:15:39;;;;;;;5.95;4.15;;;;;;;;;;5011453;28;20034;-76
2022/08/07 06:18:05;;;;;;;5.47;3.90;;;;;;;;;;5004993;28;20026;-75
2022/08/07 06:20:34;;;;;;;8.00;4.63;;;;;;;;;;5006782;28;20427;-76
2022/08/07 06:23:01;;;;;;;5.80;4.32;;;;;;;;;;5009018;28;20375;-74
2022/08/07 06:25:27;;;;;;;7.53;5.30;;;;;;;;;;5008651;28;20174;-75
2022/08/07 06:28:01;;;;;;;6.22;5.30;;;;;;;;;;5002727;28;20334;-77
2022/08/07 06:30:27;;;;;;;8.60;5.07;;;;;;;;;;4996413;28;20033;-75
2022/08/07 06:32:54;;;;;;;7.57;4.88;;;;;;;;;;5009749;28;20061;-75
2022/08/07 06:35:20;;;;;;;9.90;4.68;;;;;;;;;;5005836;28;20346;-74
2022/08/07 06:37:46;;;;;;;8.52;4.38;;;;;;;;;;5009237;28;20030;-74
2022/08/07 06:40:12;;;;;;;5.75;4.40;;;;;;;;;;4994581;28;20302;-74
2022/08/07 06:42:39;;;;;;;7.32;4.10;;;;;;;;;;5003085;28;20036;-74
2022/08/07 06:45:10;;;;;;;8.05;4.22;;;;;;;;;;4995608;28;20335;-74
2022/08/07 06:47:36;;;;;;;4.80;3.25;;;;;;;;;;5008120;28;20026;-74
2022/08/07 06:50:02;;;;;;;7.43;4.18;;;;;;;;;;5005103;28;20041;-74
2022/08/07 06:52:30;;;;;;;5.00;3.47;;;;;;;;;;5011194;28;20034;-74
2022/08/07 06:54:56;;;;;;;7.88;3.33;;;;;;;;;;5007908;28;20030;-75
2022/08/07 06:57:23;;;;;;;5.40;2.70;;;16.00;99.90;;;;;;4991063;28;20034;-75
2022/08/07 06:59:50;;;;;;;4.10;3.17;;;;;;;;;;4985280;28;20030;-74
2022/08/07 07:02:18;;;;;;;6.65;3.55;;;;;;;;;;4978195;28;20058;-74
2022/08/07 07:04:45;;;;;;;5.40;3.78;;;;;;;;;;5003265;28;20034;-74
2022/08/07 07:07:11;;;;;;;5.10;3.08;;;;;;;;;;4977895;28;20152;-74
2022/08/07 07:09:37;;;;;;;3.80;2.97;;;;;;;;;;5005249;28;20033;-74
2022/08/07 07:12:13;;;;;;;4.30;2.22;;;;;;;;;;4992222;28;20506;-75
2022/08/07 07:14:49;;;;;;;4.15;2.33;;;;;;;;;;5004602;28;20042;-74
2022/08/07 07:17:35;;;;;;;4.30;2.78;;;;;;;;;;5004923;28;20026;-74
2022/08/07 07:20:03;;;;;;;5.18;2.30;;;;;;;;;;4994035;28;20123;-75
2022/08/07 07:22:29;;;;;;;3.72;2.22;;;;;;;;;;5005277;28;20168;-74
2022/08/07 07:24:56;;;;;;;3.28;1.77;;;;;;;;;;5002167;28;20034;-75
2022/08/07 07:27:25;;;;;;;2.92;1.95;;;;;;;;;;5008545;28;20429;-74
2022/08/07 07:29:53;;;;;;;2.53;1.98;;;;;;;;;;5009238;28;20101;-75
2022/08/07 07:32:21;;;;;;;3.28;2.30;;;;;;;;;;4991661;28;20125;-74
2022/08/07 07:34:48;;;;;;;4.28;2.03;;;;;;;;;;5004709;28;20030;-74
2022/08/07 07:37:16;;;;;;;2.17;1.98;;;;;;;;;;5007121;28;20050;-74
2022/08/07 07:39:43;;;;;;;4.25;1.77;;;;;;;;;;4997904;28;20492;-74
2022/08/07 07:42:09;;;;;;;1.95;1.70;;;;;;;;;;4998256;28;20042;-74
2022/08/07 07:44:38;;;;;;;3.35;2.67;;;;;;;;;;4987904;28;20038;-74
2022/08/07 07:47:05;;;;;;;7.47;3.30;;;;;;;;;;4988444;28;20040;-74
2022/08/07 07:49:32;;;;;;;4.13;2.33;;;;;;;;;;5008684;28;20034;-74
2022/08/07 07:51:59;;;;;;;3.03;2.00;;;;;;;;;;4996617;28;20052;-76
2022/08/07 07:54:27;;;;;;;3.95;2.10;;;21.20;99.90;;;;;;5004241;28;20083;-74
2022/08/07 07:56:53;;;;;;;2.28;1.63;;;;;;;;;;4982508;28;20064;-74
2022/08/07 07:59:20;;;;;;;3.08;2.35;;;22.90;99.90;;;;;;5007315;28;20034;-74
2022/08/07 08:01:48;;;;;;;5.93;2.42;;;;;;;;;;5012637;28;20041;-73
2022/08/07 08:04:14;;;;;;;2.17;1.98;;;;;;;;;;5000977;28;20029;-74
2022/08/07 08:06:42;;;;;;;4.40;2.05;;;;;;;;;;5003823;28;20308;-77
2022/08/07 08:09:08;;;;;;;3.22;2.25;;;;;;;;;;5009326;28;20537;-75
2022/08/07 08:11:35;;;;;;;4.68;2.40;;;;;;;;;;5011754;28;20092;-75
2022/08/07 08:14:00;;;;;;;2.30;2.10;;;25.80;99.90;;;;;;5012564;28;20038;-75
2022/08/07 08:16:34;;;;;;;4.30;2.28;;;;;;;;;;5007541;28;20050;-75
2022/08/07 08:19:02;;;;;;;2.70;1.88;;;26.30;97.90;;;;;;4999272;28;20474;-75
2022/08/07 08:27:04;;;;;;;2.55;2.08;;;;;;;;;;5014175;28;20624;-75
2022/08/07 08:29:31;;;;;;;2.50;1.95;;;;;;;;;;5016040;28;20038;-74
2022/08/07 08:31:58;;;;;;;4.03;2.13;;;;;;;;;;4991371;28;20049;-73
2022/08/07 08:34:24;;;;;;;2.42;1.88;;;;;;;;;;5013562;28;20049;-76
2022/08/07 08:36:51;;;;;;;2.05;1.85;;;;;;;;;;5011126;28;20111;-72
2022/08/07 08:39:17;;;;;;;3.38;1.70;;;;;;;;;;5001605;28;20038;-73
2022/08/07 08:41:49;;;;;;;4.47;2.05;;;25.80;93.40;;;;;;5006721;28;20068;-75
2022/08/07 08:45:06;;;;;;;6.00;2.17;;;26.50;90.50;;;;;;5012355;28;20402;-73
2022/08/07 08:47:54;;;;;;;3.47;1.75;;;;;;;;;;4954724;28;20061;-74
2022/08/07 08:50:54;;;;;;;1.67;1.45;;;26.30;92.00;;;;;;5002788;28;20401;-72
2022/08/07 08:53:25;;;;;;;2.65;1.90;;;26.20;97.30;;;;;;4974101;28;20558;-74
2022/08/07 08:55:58;;;;;;;2.80;1.50;;;;;;;;;;5001744;28;20052;-74
2022/08/07 08:58:27;;;;;;;3.92;2.33;;;;;;;;;;5000759;28;20026;-71
2022/08/07 09:00:59;;;;;;;5.32;3.40;;;;;;;;;;5008950;28;20041;-76
2022/08/07 09:03:38;;;;;;;2.28;1.70;;;25.30;92.70;;;;;;5002304;28;20378;-70
2022/08/07 09:06:31;;;;;;;13.27;2.08;;;24.70;91.80;;;;;;5002662;28;20168;-73
2022/08/07 09:09:16;;;;;;;4.57;1.90;;;;;;;;;;4977727;28;20022;-74
2022/08/07 09:12:03;;;;;;;5.18;1.90;;;25.60;93.60;;;;;;5010532;28;20033;-74
2022/08/07 09:14:34;;;;;;;3.10;1.77;;;;;;;;;;5001888;28;20026;-75
2022/08/07 09:17:09;;;;;;;2.47;1.45;;;;;;;;;;5006897;28;20037;-75
2022/08/07 09:20:00;;;;;;;3.90;2.00;;;26.20;91.50;;;;;;5003767;28;20160;-74
2022/08/07 09:22:45;;;;;;;2.17;1.80;;;;;;;;;;4988396;28;20496;-75
2022/08/07 09:25:21;;;;;;;2.17;1.50;;;;;;;;;;5024260;28;20029;-77
2022/08/07 09:28:06;;;;;;;2.42;1.67;;;25.70;90.20;;;;;;5027712;28;20111;-78
2022/08/07 09:30:48;;;;;;;1.60;1.50;;;;;;;;;;5026916;28;20037;-76
2022/08/07 09:33:23;;;;;;;3.03;1.58;;;;;;;;;;5027729;28;20030;-74
2022/08/07 09:36:10;;;;;;;3.75;1.60;;;26.20;92.30;;;;;;5027542;28;20063;-73
2022/08/07 09:38:55;;;;;;;2.45;1.58;;;;;;;;;;5019943;28;20021;-74
2022/08/07 09:41:29;;;;;;;3.50;1.70;;;;;;;;;;5016136;28;20041;-74
2022/08/07 09:44:01;;;;;;;2.15;1.50;;;;;;;;;;5011663;28;20536;-74
2022/08/07 09:46:27;;;;;;;;;;;;;;;;;;5016463;28;20030;-74
2022/08/07 09:49:23;;;;;;;3.10;1.73;;;27.60;89.60;;;;;;5017347;28;19913;-75
2022/08/07 09:51:52;;;;;;;4.93;1.70;;;28.00;95.00;;;;;;5000917;28;20444;-73
2022/08/07 09:54:22;;;;;;;14.07;10.98;;;;;;;;;;5025986;28;20033;-75
2022/08/07 09:57:02;;;;;;;3.15;1.77;;;;;;;;;;5019406;28;20111;-76
2022/08/07 09:59:48;;;;;;;2.03;1.33;;;;;;;;;;5011162;28;20029;-74
2022/08/07 10:02:32;;;;;;;3.67;1.17;;;;;;;;;;5018079;28;20070;-73
2022/08/07 10:05:08;;;;;;;2.83;1.65;;;;;;;;;;5018931;28;20033;-73
2022/08/07 10:07:54;;;;;;;3.15;1.40;;;26.80;91.00;;;;;;5023315;28;20029;-73
2022/08/07 10:10:35;;;;;;;2.42;1.25;;;26.90;90.80;;;;;;5024290;28;20056;-72
2022/08/07 10:13:00;;;;;;;3.05;1.27;;;;;;;;;;5016394;28;20487;-76
2022/08/07 10:15:29;;;;;;;2.25;1.55;;;;;;;;;;5026280;28;20117;-73
2022/08/07 10:18:15;;;;;;;2.58;1.30;;;;;;;;;;5025811;28;20046;-73
2022/08/07 10:20:46;;;;;;;4.15;1.67;;;;;;;;;;5029357;28;20069;-72
2022/08/07 10:23:31;;;;;;;2.37;1.57;;;;;;;;;;5016884;28;20104;-72
2022/08/07 10:26:15;;;;;;;2.83;1.10;;;27.60;85.60;;;;;;5004234;28;20053;-75
2022/08/07 10:28:47;;;;;;;4.70;1.70;;;;;;;;;;5008589;28;20081;-72
2022/08/07 10:31:34;;;;;;;1.70;1.33;;;28.20;86.90;;;;;;5005380;28;20478;-76
2022/08/07 10:34:00;;;;;;;1.50;1.30;;;;;;;;;;4977875;28;20045;-74
2022/08/07 10:36:50;;;;;;;1.65;1.50;;;28.60;82.70;;;;;;5004269;28;20057;-75
2022/08/07 10:39:22;;;;;;;1.70;1.27;;;;;;;;;;5006822;28;20508;-76
2022/08/07 10:42:00;;;;;;;3.13;1.20;;;28.90;86.30;;;;;;5000451;28;20152;-74
2022/08/07 10:44:34;;;;;;;2.15;1.23;;;;;;;;;;4991404;28;20037;-74
2022/08/07 10:47:09;;;;;;;2.20;1.20;;;;;;;;;;5004762;28;20057;-74
2022/08/07 10:49:39;;;;;;;1.25;0.88;;;;;;;;;;4996108;28;20154;-74
2022/08/07 10:52:08;;;;;;;1.35;1.00;;;;;;;;;;5001685;28;20125;-74
2022/08/07 10:54:50;;;;;;;1.85;0.90;;;29.40;82.40;;;;;;5007965;28;20095;-75
2022/08/07 10:57:38;;;;;;;2.17;1.00;;;29.20;78.10;;;;;;5003735;28;20034;-74
2022/08/07 11:00:08;;;;;;;1.83;1.17;;;29.10;79.30;;;;;;4993005;28;20026;-74
2022/08/07 11:02:43;;;;;;;2.73;1.20;;;;;;;;;;5008336;28;20033;-73
2022/08/07 11:05:37;;;;;;;3.28;1.02;;;29.40;80.40;;;;;;4997906;28;20118;-76
2022/08/07 11:08:30;;;;;;;3.97;1.60;;;;;;;;;;5001268;28;20046;-73
2022/08/07 11:11:19;;;;;;;2.22;1.40;;;;;;;;;;4995215;28;20064;-79
2022/08/07 11:13:50;;;;;;;2.88;1.30;;;;;;;;;;4963579;28;20038;-72
2022/08/07 11:16:27;;;;;;;3.78;1.35;;;;;;;;;;4999821;28;20029;-72
2022/08/07 11:18:58;;;;;;;2.42;1.25;;;;;;;;;;5004851;28;20351;-72
2022/08/07 11:21:36;;;;;;;2.13;1.30;;;29.10;94.20;;;;;;4999278;28;20165;-73
2022/08/07 11:24:20;;;;;;;2.30;1.30;;;28.40;88.80;;;;;;4993671;28;20053;-76
2022/08/07 11:27:06;;;;;;;3.35;1.88;;;;;;;;;;4996435;28;20080;-73
2022/08/07 11:29:53;;;;;;;2.58;1.77;;;27.10;86.40;;;;;;4998194;28;20121;-72
2022/08/07 11:32:44;;;;;;;3.03;1.55;;;26.50;90.10;;;;;;5003205;28;20034;-72
2022/08/07 11:35:11;;;;;;;3.13;1.65;;;;;;;;;;4964101;28;20121;-74
2022/08/07 11:37:49;;;;;;;3.28;1.42;;;;;;;;;;5007889;28;20033;-73
2022/08/07 11:40:21;;;;;;;2.22;1.48;;;26.60;89.10;;;;;;4993947;28;20505;-73
2022/08/07 11:42:49;;;;;;;1.83;1.33;;;26.60;89.10;;;;;;5007693;28;20494;-73
2022/08/07 11:45:39;;;;;;;2.15;1.33;;;;;;;;;;5004144;28;20034;-72
2022/08/07 11:48:08;;;;;;;3.58;1.77;;;;;;;;;;4977601;28;20161;-72
2022/08/07 11:50:47;;;;;;;2.30;1.70;;;;;;;;;;5011230;28;20056;-72
2022/08/07 11:53:14;;;;;;;2.95;1.85;;;;;;;;;;5000586;28;20037;-72
2022/08/07 11:56:10;;;;;;;4.28;2.10;;;;;;;;;;5004901;28;20040;-73
2022/08/07 11:58:57;;;;;;;3.95;1.67;;;;;;;;;;4991699;28;20490;-72
2022/08/07 12:01:23;;;;;;;7.13;3.67;;;;;;;;;;4999903;28;20050;-74
2022/08/07 12:03:55;;;;;;;2.78;1.98;;;;;;;;;;5004599;28;20515;-73
2022/08/07 12:06:28;;;;;;;2.70;1.73;;;;;;;;;;5007026;28;20041;-73
2022/08/07 12:09:16;;;;;;;6.07;2.13;;;;;;;;;;4987295;28;20057;-80
2022/08/07 12:11:46;;;;;;;5.00;2.13;;;;;;;;;;5001722;28;20113;-74
2022/08/07 12:14:20;;;;;;;3.70;2.17;;;26.00;91.00;;;;;;5000197;28;20034;-75
2022/08/07 12:16:50;;;;;;;3.47;1.80;;;;;;;;;;4998813;28;20086;-76
2022/08/07 12:19:22;;;;;;;2.88;1.80;;;;;;;;;;4996913;28;20050;-74
2022/08/07 12:22:16;;;;;;;2.67;1.70;;;25.70;93.30;;;;;;5012688;28;20069;-73
2022/08/07 12:28:07;;;;;;;2.45;1.30;;;;;;;;;;5012204;28;20033;-73
2022/08/07 12:30:36;;;;;;;2.90;1.77;;;;;;;;;;5012686;28;20062;-74
2022/08/07 12:33:04;;;;;;;3.47;1.80;;;;;;;;;;5012229;28;20600;-72
2022/08/07 12:35:33;;;;;;;6.70;1.85;;;26.20;92.30;;;;;;5001819;28;20033;-75
2022/08/07 12:37:59;;;;;;;2.80;2.10;;;;;;;;;;5009765;28;20025;-73
2022/08/07 12:40:28;;;;;;;1.33;1.23;;;26.10;92.00;;;;;;5013065;28;20074;-73
2022/08/07 12:42:58;;;;;;;4.28;1.55;;;25.90;92.30;;;;;;5008506;28;20474;-72
2022/08/07 12:45:33;;;;;;;5.03;1.63;;;;;;;;;;5005679;28;20041;-72
2022/08/07 12:48:37;;;;;;;2.47;1.58;;;26.10;90.50;;;;;;5007113;28;20053;-72
2022/08/07 12:51:11;;;;;;;2.88;1.33;;;;;;;;;;4999124;28;20081;-72
2022/08/07 12:53:39;;;;;;;5.60;1.42;;;;;;;;;;4992897;28;20589;-75
2022/08/07 12:56:29;;;;;;;1.83;0.95;;;;;;;;;;5009939;28;20030;-72
2022/08/07 12:58:56;;;;;;;2.15;0.98;;;;;;;;;;4997786;28;20042;-73
2022/08/07 13:01:21;;;;;;;2.70;1.35;;;26.80;96.00;;;;;;5007397;28;20041;-72
2022/08/07 13:03:47;;;;;;;3.30;1.10;;;;;;;;;;4998077;28;20398;-72
2022/08/07 13:06:13;;;;;;;4.00;1.10;;;;;;;;;;4991634;28;20030;-73
2022/08/07 13:09:21;;;;;;;2.03;0.98;;;27.00;85.40;;;;;;4992538;28;20030;-74
2022/08/07 13:11:53;;;;;;;4.85;1.20;;;;;;;;;;5010162;28;20485;-73
2022/08/07 13:14:30;;;;;;;1.60;0.80;;;26.80;85.60;;;;;;5007279;28;20080;-72
2022/08/07 13:17:11;;;;;;;2.08;0.90;;;;;;;;;;5009042;28;20045;-75
2022/08/07 13:19:58;;;;;;;3.42;1.25;;;27.20;85.80;;;;;;4994027;28;20036;-73
2022/08/07 13:22:31;;;;;;;7.47;0.98;;;;;;;;;;5015486;28;20041;-72
2022/08/07 13:25:02;;;;;;;1.73;0.80;;;;;;;;;;5017325;28;20088;-72
2022/08/07 13:27:48;;;;;;;2.47;0.70;;;;;;;;;;4996848;28;20025;-72
2022/08/07 13:30:14;;;;;;;1.90;0.45;;;;;;;;;;5018998;28;20033;-73
2022/08/07 13:32:44;;;;;;;2.33;0.80;;;;;;;;;;5007508;28;20401;-72
2022/08/07 13:35:20;;;;;;;2.47;0.70;;;;;;;;;;5012218;28;20081;-72
2022/08/07 13:38:23;;;;;;;1.42;0.50;;;25.70;87.00;;;;;;5011885;28;20025;-72
2022/08/07 13:41:11;;;;;;;3.85;0.68;;;25.60;88.00;;;;;;5006010;28;20044;-72
2022/08/07 13:43:44;;;;;;;2.05;0.70;;;25.70;88.00;;;;;;5004930;28;20061;-76
2022/08/07 13:46:12;;;;;;;1.25;0.70;;;;;;;;;;5003013;28;20173;-76
2022/08/07 13:48:39;;;;;;;2.50;0.73;;;;;;;;;;4993968;28;20504;-74
2022/08/07 13:51:08;;;;;;;1.60;0.80;;;;;;;;;;4991802;28;20359;-75
2022/08/07 13:53:39;;;;;;;2.28;0.60;;;25.10;91.60;;;;;;5002382;28;20115;-74
2022/08/07 13:56:06;;;;;;;0.88;0.60;;;24.60;91.90;;;;;;5003386;28;20073;-74
2022/08/07 14:01:27;;;;;;;3.47;0.90;;;;;;;;;;5011072;28;20385;-75
2022/08/07 14:03:54;;;;;;;3.90;0.90;;;;;;;;;;5005514;28;20038;-74
2022/08/07 14:06:21;;;;;;;4.55;0.80;;;;;;;;;;5007367;28;20037;-74
2022/08/07 14:08:51;;;;;;;5.88;1.33;;;25.00;93.30;;;;;;4996157;28;20030;-75
2022/08/07 14:11:18;;;;;;;3.58;1.02;;;;;;;;;;4979789;28;20074;-74
2022/08/07 14:13:54;;;;;;;2.53;0.80;;;;;;;;;;4980139;28;20173;-74
2022/08/07 14:16:23;;;;;;;5.78;1.00;;;;;;;;;;5006585;28;20462;-74
2022/08/07 14:18:50;;;;;;;2.72;0.88;;;;;;;;;;4976121;28;20033;-73
2022/08/07 14:21:40;;;;;;;2.95;1.40;;;26.20;91.70;;;;;;4989643;28;20091;-74
2022/08/07 14:24:19;;;;;;;5.97;1.10;;;26.10;91.70;;;;;;4987179;28;20652;-74
2022/08/07 14:26:50;;;;;;;2.90;1.10;;;;;;;;;;4998521;28;20038;-83
2022/08/07 14:29:17;;;;;;;1.80;1.02;;;;;;;;;;4984415;28;20068;-73
2022/08/07 14:31:46;;;;;;;3.45;0.90;;;;;;;;;;5004692;28;20482;-72
2022/08/07 14:34:14;;;;;;;3.80;0.90;;;25.60;91.70;;;;;;4997506;28;20034;-73
2022/08/07 14:36:43;;;;;;;3.38;0.82;;;;;;;;;;5001637;28;20049;-72
2022/08/07 14:39:10;;;;;;;4.13;1.00;;;;;;;;;;4997243;28;20116;-71
2022/08/07 14:41:38;;;;;;;2.65;1.10;;;25.30;91.70;;;;;;4999608;28;20206;-72
2022/08/07 14:44:08;;;;;;;2.95;1.00;;;25.10;92.40;;;;;;5001445;28;20116;-72
2022/08/07 14:46:36;;;;;;;2.40;1.15;;;24.90;92.40;;;;;;5010362;28;20037;-72
2022/08/07 14:49:02;;;;;;;1.80;1.00;;;;;;;;;;5007743;28;20034;-72
2022/08/07 14:51:30;;;;;;;4.47;1.20;;;25.50;91.70;;;;;;4990993;28;20494;-72
2022/08/07 14:53:57;;;;;;;2.58;1.10;;;;;;;;;;5009480;28;20069;-73
2022/08/07 14:56:25;;;;;;;2.15;1.20;;;26.10;91.40;;;;;;5002358;28;20125;-73